Time;durP1;ratioP1;P1;durP2;ratioP2;P2;SDS_P1;SDS_P2;PMS_P1;PMS_P2;Temp;Humidity;BMP_temperature;BMP_pressure;BME280_temperature;BME280_humidity;BME280_pressure;Samples;Min_cycle;Max_cycle;Signal;HPM_P1;HPM_P2
2020/12/12 00:01:58;;;;;;;54.53;40.22;;;;;;;8.91;67.86;99114.22;5060788;28;20037;-79
2020/12/12 00:04:24;;;;;;;61.33;43.38;;;;;;;8.73;68.40;99112.34;5040890;28;20036;-79
2020/12/12 00:06:49;;;;;;;61.03;43.75;;;;;;;8.94;68.10;99121.88;5008135;28;20155;-79
2020/12/12 00:09:15;;;;;;;58.80;42.67;;;;;;;8.93;68.32;99124.84;5041373;28;20502;-79
2020/12/12 00:11:40;;;;;;;64.38;44.80;;;;;;;9.00;67.92;99124.72;5042812;28;20074;-78
2020/12/12 00:14:06;;;;;;;56.83;40.45;;;;;;;8.99;67.81;99120.34;5059920;28;20044;-79
2020/12/12 00:16:31;;;;;;;63.10;40.55;;;;;;;9.09;67.52;99126.06;5059219;28;20028;-79
2020/12/12 00:18:57;;;;;;;69.93;42.08;;;;;;;9.07;67.40;99112.75;5056461;28;20032;-80
2020/12/12 00:21:23;;;;;;;61.38;41.70;;;;;;;9.06;67.73;99115.69;5057532;28;20032;-78
2020/12/12 00:23:49;;;;;;;70.13;42.50;;;;;;;8.98;68.03;99119.53;5059261;28;20040;-80
2020/12/12 00:26:21;;;;;;;59.20;37.28;;;;;;;9.10;67.71;99123.13;5054187;28;20032;-80
2020/12/12 00:28:47;;;;;;;62.58;41.50;;;;;;;9.03;67.86;99113.44;5057670;28;20441;-80
2020/12/12 00:31:15;;;;;;;56.20;38.17;;;;;;;9.05;67.75;99116.72;5058351;28;20024;-78
2020/12/12 00:33:40;;;;;;;68.55;41.50;;;;;;;9.05;67.83;99122.16;5060834;28;20122;-78
2020/12/12 00:36:06;;;;;;;53.53;35.83;;;;;;;9.08;67.75;99124.41;5058687;28;20421;-80
2020/12/12 00:38:31;;;;;;;65.90;40.45;;;;;;;8.74;68.78;99124.00;5059994;28;20048;-77
2020/12/12 00:40:57;;;;;;;67.47;41.45;;;;;;;8.93;68.43;99128.34;5039971;28;20249;-79
2020/12/12 00:43:24;;;;;;;60.50;41.22;;;;;;;8.92;68.31;99126.69;5055345;28;20708;-78
2020/12/12 00:45:50;;;;;;;62.17;42.30;;;;;;;9.00;68.28;99127.44;5058992;28;20094;-79
2020/12/12 00:48:15;;;;;;;64.57;39.72;;;;;;;9.05;67.80;99124.88;5052831;28;20041;-80
2020/12/12 00:50:48;;;;;;;67.20;36.13;;;;;;;9.04;68.08;99126.75;5039008;28;20258;-79
2020/12/12 00:53:13;;;;;;;60.85;36.45;;;;;;;9.10;67.95;99138.59;5057224;28;20033;-78
2020/12/12 00:55:39;;;;;;;63.40;38.78;;;;;;;9.05;68.26;99141.13;5060060;28;20017;-80
2020/12/12 00:58:04;;;;;;;62.80;37.58;;;;;;;9.07;68.22;99133.63;5060073;28;20453;-79
2020/12/12 01:00:33;;;;;;;64.57;35.65;;;;;;;8.86;68.65;99141.16;5046297;28;20261;-79
2020/12/12 01:03:02;;;;;;;63.13;36.40;;;;;;;8.98;68.60;99132.28;5064397;28;20059;-79
2020/12/12 01:05:29;;;;;;;61.35;41.53;;;;;;;9.06;68.61;99142.81;5043488;28;20098;-78
2020/12/12 01:07:54;;;;;;;65.35;35.55;;;;;;;9.02;68.36;99139.72;5046832;28;20037;-78
2020/12/12 01:10:20;;;;;;;66.28;39.97;;;;;;;9.01;68.35;99145.38;5067652;28;20106;-78
2020/12/12 01:12:46;;;;;;;68.15;43.67;;;;;;;9.05;68.39;99139.28;5065427;28;20068;-79
2020/12/12 01:15:11;;;;;;;60.78;40.13;;;;;;;9.12;68.36;99142.69;5065682;28;20059;-79
2020/12/12 01:17:37;;;;;;;59.58;38.53;;;;;;;9.26;67.75;99153.38;5068051;28;20033;-80
2020/12/12 01:20:04;;;;;;;60.17;42.88;;;;;;;9.30;67.48;99151.88;5056679;28;20483;-80
2020/12/12 01:22:29;;;;;;;69.05;39.88;;;;;;;9.20;67.61;99157.00;5062778;28;20028;-80
2020/12/12 01:24:55;;;;;;;66.03;37.88;;;;;;;9.20;67.65;99160.53;5063869;28;20036;-79
2020/12/12 01:27:20;;;;;;;64.35;40.15;;;;;;;9.20;67.83;99159.72;5066426;28;20032;-80
2020/12/12 01:29:45;;;;;;;68.43;41.13;;;;;;;9.21;67.89;99164.09;5064791;28;20029;-80
2020/12/12 01:32:11;;;;;;;62.83;40.17;;;;;;;9.20;67.81;99165.16;5068017;28;20043;-80
2020/12/12 01:34:36;;;;;;;64.35;43.22;;;;;;;9.19;67.73;99174.34;5044026;28;20430;-79
2020/12/12 01:37:02;;;;;;;53.28;35.92;;;;;;;9.12;67.75;99160.88;5046630;28;20049;-81
2020/12/12 01:39:27;;;;;;;61.63;39.20;;;;;;;9.22;67.79;99176.59;5046208;28;20039;-80
2020/12/12 01:41:56;;;;;;;68.93;40.58;;;;;;;9.16;67.72;99170.22;5061985;28;20368;-81
2020/12/12 01:44:21;;;;;;;59.40;37.22;;;;;;;9.21;67.57;99172.25;5062093;28;20530;-80
2020/12/12 01:46:48;;;;;;;66.68;43.28;;;;;;;9.02;68.22;99174.13;5062158;28;20078;-81
2020/12/12 01:49:13;;;;;;;52.97;37.05;;;;;;;9.05;68.12;99179.09;5065915;28;20078;-80
2020/12/12 01:51:39;;;;;;;60.22;40.13;;;;;;;9.11;67.65;99179.03;5044061;28;20028;-81
2020/12/12 01:54:05;;;;;;;57.72;38.03;;;;;;;9.04;67.86;99188.31;5045364;28;20566;-80
2020/12/12 01:56:31;;;;;;;57.95;38.40;;;;;;;9.13;67.58;99190.47;5058962;28;20036;-80
2020/12/12 01:58:57;;;;;;;52.05;36.88;;;;;;;9.04;68.01;99194.56;5045162;28;20600;-79
2020/12/12 02:01:23;;;;;;;60.33;37.15;;;;;;;9.10;67.76;99195.53;5062663;28;20044;-80
2020/12/12 02:03:50;;;;;;;53.78;36.47;;;;;;;9.12;67.83;99201.53;5065355;28;20103;-81
2020/12/12 02:06:18;;;;;;;57.70;38.65;;;;;;;9.01;68.05;99200.41;5037654;28;20064;-78
2020/12/12 02:08:44;;;;;;;62.50;38.80;;;;;;;9.02;68.14;99198.53;5040306;28;20029;-80
2020/12/12 02:11:12;;;;;;;58.85;36.92;;;;;;;8.99;68.01;99194.41;5052297;28;20028;-79
2020/12/12 02:13:43;;;;;;;55.50;35.75;;;;;;;9.02;68.04;99195.81;5050147;28;20067;-80
2020/12/12 02:16:09;;;;;;;;;;;;;;;9.06;67.84;99203.28;5061907;28;20020;-80
2020/12/12 02:18:36;;;;;;;56.00;36.35;;;;;;;9.08;67.70;99201.19;5064012;28;19924;-80
2020/12/12 02:21:02;;;;;;;58.33;36.58;;;;;;;9.01;67.68;99207.75;5063426;28;20072;-80
2020/12/12 02:23:28;;;;;;;60.08;37.63;;;;;;;9.06;67.79;99207.88;5063347;28;20082;-79
2020/12/12 02:25:54;;;;;;;71.68;40.38;;;;;;;9.02;67.87;99206.66;5063499;28;20107;-79
2020/12/12 02:28:23;;;;;;;64.45;37.50;;;;;;;9.07;67.81;99209.53;5062023;28;20175;-79
2020/12/12 02:30:48;;;;;;;61.92;39.58;;;;;;;8.99;67.69;99207.13;5065835;28;20029;-79
2020/12/12 02:33:15;;;;;;;60.00;40.42;;;;;;;9.11;67.80;99217.00;5063098;28;20038;-81
2020/12/12 02:35:40;;;;;;;63.13;37.78;;;;;;;8.95;68.36;99213.00;5065668;28;20033;-81
2020/12/12 02:38:06;;;;;;;63.60;40.70;;;;;;;8.99;68.25;99207.13;5064946;28;20052;-80
2020/12/12 02:40:31;;;;;;;67.45;38.42;;;;;;;9.03;68.24;99211.84;5063796;28;20421;-81
2020/12/12 02:42:57;;;;;;;65.45;40.38;;;;;;;9.03;68.12;99211.03;5046307;28;20020;-80
2020/12/12 02:45:22;;;;;;;64.20;39.55;;;;;;;9.07;67.96;99212.25;5065094;28;20028;-79
2020/12/12 02:47:48;;;;;;;72.28;41.05;;;;;;;9.02;67.71;99209.38;5053951;28;20120;-80
2020/12/12 02:50:15;;;;;;;56.40;39.67;;;;;;;9.00;67.91;99216.91;5049835;28;20047;-80
2020/12/12 02:52:42;;;;;;;70.93;41.78;;;;;;;9.04;67.81;99212.72;5060149;28;20035;-80
2020/12/12 02:55:09;;;;;;;65.28;42.58;;;;;;;9.08;67.76;99217.44;5060974;28;20052;-80
2020/12/12 02:57:36;;;;;;;61.65;39.55;;;;;;;8.97;67.70;99207.34;5064062;28;20070;-79
2020/12/12 03:00:07;;;;;;;65.47;40.45;;;;;;;9.08;67.70;99216.59;5061941;28;20159;-79
2020/12/12 03:02:32;;;;;;;60.33;37.45;;;;;;;9.03;67.74;99216.47;5061202;28;20024;-80
2020/12/12 03:04:57;;;;;;;71.43;39.70;;;;;;;9.03;67.82;99221.88;5057689;28;20044;-80
2020/12/12 03:07:23;;;;;;;66.80;39.25;;;;;;;9.01;67.90;99229.44;5061061;28;20434;-79
2020/12/12 03:09:48;;;;;;;71.30;41.00;;;;;;;9.07;67.80;99228.53;5060059;28;20033;-81
2020/12/12 03:12:14;;;;;;;67.15;40.47;;;;;;;9.01;67.91;99232.16;5059629;28;20036;-80
2020/12/12 03:14:39;;;;;;;59.78;41.35;;;;;;;9.05;67.61;99234.19;5043782;28;20494;-80
2020/12/12 03:17:09;;;;;;;88.47;44.92;;;;;;;9.02;67.86;99231.91;5058558;28;20113;-79
2020/12/12 03:19:35;;;;;;;72.55;42.47;;;;;;;8.93;67.93;99227.84;5061517;28;20072;-80
2020/12/12 03:22:00;;;;;;;60.33;37.97;;;;;;;8.92;67.94;99226.19;5052447;28;20103;-79
2020/12/12 03:24:25;;;;;;;59.20;40.70;;;;;;;8.98;67.98;99236.13;5042184;28;20513;-80
2020/12/12 03:26:51;;;;;;;73.25;47.40;;;;;;;8.89;68.02;99234.78;5052228;28;20028;-79
2020/12/12 03:29:16;;;;;;;63.67;41.70;;;;;;;8.87;68.16;99239.59;5065021;28;20029;-79
2020/12/12 03:31:42;;;;;;;57.42;41.45;;;;;;;9.00;67.92;99244.84;5040808;28;20040;-80
2020/12/12 03:34:07;;;;;;;68.85;43.83;;;;;;;8.88;68.10;99239.38;5063942;28;20028;-80
2020/12/12 03:36:32;;;;;;;64.32;39.92;;;;;;;8.87;68.15;99232.28;5060142;28;21225;-79
2020/12/12 03:38:58;;;;;;;84.22;46.63;;;;;;;8.70;68.47;99228.50;5064452;28;20032;-79
2020/12/12 03:41:23;;;;;;;75.95;43.03;;;;;;;8.87;68.25;99232.28;5043722;28;20033;-80
2020/12/12 03:43:48;;;;;;;58.30;40.05;;;;;;;8.91;68.36;99235.34;5056123;28;20040;-79
2020/12/12 03:46:14;;;;;;;67.90;43.33;;;;;;;8.90;68.02;99239.16;5044468;28;20033;-79
2020/12/12 03:48:41;;;;;;;63.58;42.25;;;;;;;8.90;68.25;99239.16;5062205;28;20411;-79
2020/12/12 03:51:07;;;;;;;77.93;44.67;;;;;;;8.79;68.38;99238.00;5061597;28;20520;-78
2020/12/12 03:53:32;;;;;;;70.93;44.78;;;;;;;8.91;68.37;99244.34;5063271;28;20032;-80
2020/12/12 03:55:57;;;;;;;78.97;41.60;;;;;;;8.67;69.12;99248.75;5063860;28;20040;-80
2020/12/12 03:58:23;;;;;;;78.50;48.90;;;;;;;8.82;68.62;99244.84;5043106;28;20039;-78
2020/12/12 04:00:48;;;;;;;69.18;51.38;;;;;;;8.80;68.89;99239.66;5062308;28;20632;-78
2020/12/12 04:03:14;;;;;;;79.90;44.47;;;;;;;8.82;68.69;99250.25;5063308;28;20032;-79
2020/12/12 04:05:43;;;;;;;77.65;46.90;;;;;;;8.72;68.91;99245.38;5060879;28;20028;-79
2020/12/12 04:08:09;;;;;;;71.15;41.33;;;;;;;8.75;68.68;99245.75;5042877;28;20475;-79
2020/12/12 04:10:34;;;;;;;73.45;46.22;;;;;;;8.71;69.26;99244.56;5046243;28;20040;-80
2020/12/12 04:13:00;;;;;;;71.93;43.90;;;;;;;8.75;68.80;99251.16;5039812;28;20529;-79
2020/12/12 04:15:25;;;;;;;62.70;43.40;;;;;;;8.97;68.53;99250.72;5057526;28;20040;-79
2020/12/12 04:17:51;;;;;;;85.65;45.58;;;;;;;8.80;68.76;99253.19;5043531;28;20044;-78
2020/12/12 04:20:16;;;;;;;78.85;45.53;;;;;;;8.88;68.66;99247.50;5063057;28;20032;-80
2020/12/12 04:22:41;;;;;;;81.15;43.92;;;;;;;8.85;68.56;99250.66;5063322;28;20033;-80
2020/12/12 04:25:07;;;;;;;73.30;42.60;;;;;;;8.91;68.57;99249.75;5060783;28;20028;-79
2020/12/12 04:27:32;;;;;;;83.93;44.25;;;;;;;8.91;68.59;99265.19;5065353;28;20111;-79
2020/12/12 04:29:58;;;;;;;81.10;41.58;;;;;;;8.98;68.44;99259.72;5060494;28;20091;-80
2020/12/12 04:32:23;;;;;;;116.05;47.13;;;;;;;8.85;68.68;99256.09;5043351;28;20032;-79
2020/12/12 04:34:49;;;;;;;72.75;43.60;;;;;;;8.92;68.80;99253.28;5058358;28;20037;-79
2020/12/12 04:37:14;;;;;;;90.25;44.38;;;;;;;8.89;68.49;99257.28;5062522;28;20094;-79
2020/12/12 04:39:40;;;;;;;71.97;39.28;;;;;;;8.84;69.08;99261.72;5044037;28;20239;-79
2020/12/12 04:42:07;;;;;;;73.40;40.20;;;;;;;8.89;68.81;99261.88;5046148;28;20508;-80
2020/12/12 04:44:34;;;;;;;84.85;42.22;;;;;;;8.98;68.66;99265.94;5059480;28;20037;-80
2020/12/12 04:47:00;;;;;;;80.05;43.22;;;;;;;8.90;68.85;99268.97;5046504;28;20029;-80
2020/12/12 04:49:25;;;;;;;73.90;42.97;;;;;;;8.85;68.92;99266.06;5059116;28;20068;-79
2020/12/12 04:51:51;;;;;;;69.97;42.28;;;;;;;9.03;68.67;99274.22;5045247;28;20114;-80
2020/12/12 04:54:19;;;;;;;85.88;45.13;;;;;;;8.76;69.03;99268.28;5063361;28;20036;-80
2020/12/12 04:56:46;;;;;;;83.00;43.95;;;;;;;8.89;68.98;99265.41;5063045;28;20044;-79
2020/12/12 04:59:13;;;;;;;82.50;44.22;;;;;;;8.80;69.26;99274.06;5064837;28;20398;-78
2020/12/12 05:01:38;;;;;;;70.13;46.40;;;;;;;8.91;69.08;99271.47;5057036;28;20033;-79
2020/12/12 05:04:09;;;;;;;82.07;40.47;;;;;;;8.99;68.75;99273.03;5064204;28;20130;-80
2020/12/12 05:06:35;;;;;;;58.72;36.88;;;;;;;8.91;69.14;99281.44;5057618;28;20024;-79
2020/12/12 05:09:01;;;;;;;68.90;47.90;;;;;;;9.08;68.68;99284.41;5038031;28;20434;-80
2020/12/12 05:11:27;;;;;;;69.95;42.80;;;;;;;8.95;69.06;99288.91;5062353;28;20507;-77
2020/12/12 05:13:53;;;;;;;72.20;41.20;;;;;;;8.93;69.12;99290.22;5064414;28;20118;-78
2020/12/12 05:16:19;;;;;;;68.35;38.30;;;;;;;8.89;69.40;99287.09;5062176;28;20454;-79
2020/12/12 05:18:45;;;;;;;69.32;39.63;;;;;;;8.91;69.47;99287.72;5062630;28;20043;-79
2020/12/12 05:21:11;;;;;;;73.80;40.45;;;;;;;9.00;68.86;99298.25;5063354;28;20028;-79
2020/12/12 05:23:38;;;;;;;83.95;42.42;;;;;;;8.92;69.28;99296.66;5060061;28;20148;-80
2020/12/12 05:26:03;;;;;;;69.03;39.80;;;;;;;9.07;68.96;99285.47;5060785;28;20024;-79
2020/12/12 05:28:28;;;;;;;73.85;42.00;;;;;;;8.87;69.50;99291.91;5057837;28;20025;-78
2020/12/12 05:30:54;;;;;;;80.07;44.22;;;;;;;8.94;69.44;99289.13;5062573;28;20048;-79
2020/12/12 05:33:22;;;;;;;75.22;43.67;;;;;;;8.98;69.04;99293.06;5060996;28;20052;-80
2020/12/12 05:35:49;;;;;;;84.15;49.15;;;;;;;8.95;69.12;99297.03;5061481;28;20032;-79
2020/12/12 05:38:14;;;;;;;70.82;43.80;;;;;;;9.03;68.93;99289.69;5061858;28;20471;-79
2020/12/12 05:40:42;;;;;;;76.70;45.47;;;;;;;9.08;69.16;99308.81;5061049;28;20043;-79
2020/12/12 05:43:10;;;;;;;81.25;46.80;;;;;;;9.10;68.73;99302.13;5059569;28;20116;-78
2020/12/12 05:45:37;;;;;;;87.15;48.00;;;;;;;9.01;69.20;99318.91;5057466;28;20107;-78
2020/12/12 05:48:04;;;;;;;79.38;45.33;;;;;;;9.01;69.24;99316.19;5064463;28;20053;-79
2020/12/12 05:50:30;;;;;;;71.63;47.83;;;;;;;9.19;68.45;99321.66;5066228;28;20055;-78
2020/12/12 05:52:56;;;;;;;70.85;43.28;;;;;;;9.11;68.92;99330.06;5045356;28;20486;-79
2020/12/12 05:55:31;;;;;;;79.35;44.45;;;;;;;8.98;69.18;99327.50;5062639;28;20036;-80
2020/12/12 05:57:58;;;;;;;78.38;42.83;;;;;;;9.05;68.98;99328.22;5046517;28;20071;-79
2020/12/12 06:00:25;;;;;;;72.80;41.22;;;;;;;9.16;68.75;99327.53;5061468;28;20339;-79
2020/12/12 06:03:03;;;;;;;80.18;42.08;;;;;;;8.96;69.26;99336.66;5065976;28;20045;-78
2020/12/12 06:05:31;;;;;;;77.03;41.47;;;;;;;8.97;69.42;99332.06;5063037;28;20060;-79
2020/12/12 06:08:02;;;;;;;73.18;41.25;;;;;;;9.10;68.93;99333.84;5047212;28;20031;-78
2020/12/12 06:10:29;;;;;;;73.82;40.30;;;;;;;9.11;69.03;99340.91;5062440;28;20426;-79
2020/12/12 06:13:00;;;;;;;63.88;39.58;;;;;;;9.00;69.30;99344.34;5067064;28;20024;-78
2020/12/12 06:15:37;;;;;;;72.82;43.65;;;;;;;9.07;69.12;99337.00;5063261;28;20074;-79
2020/12/12 06:18:05;;;;;;;70.05;43.85;;;;;;;9.03;69.48;99341.19;5061243;28;20025;-79
2020/12/12 06:20:33;;;;;;;73.70;39.63;;;;;;;9.02;69.25;99353.09;5062600;28;20302;-79
2020/12/12 06:23:00;;;;;;;64.22;41.50;;;;;;;8.96;69.42;99344.00;5042880;28;20099;-78
2020/12/12 06:25:27;;;;;;;67.57;40.67;;;;;;;8.80;69.71;99352.66;5065185;28;20025;-78
2020/12/12 06:27:54;;;;;;;70.35;41.30;;;;;;;8.87;69.76;99351.56;5064296;28;20044;-79
2020/12/12 06:30:22;;;;;;;66.35;41.28;;;;;;;9.05;69.27;99355.34;5061365;28;20064;-79
2020/12/12 06:32:48;;;;;;;64.45;39.13;;;;;;;9.04;69.41;99356.44;5064337;28;20040;-77
2020/12/12 06:35:14;;;;;;;63.92;39.85;;;;;;;9.10;68.99;99364.50;5064858;28;20546;-79
2020/12/12 06:37:40;;;;;;;66.28;39.53;;;;;;;9.01;69.38;99363.13;5061936;28;20071;-77
2020/12/12 06:40:12;;;;;;;64.70;41.10;;;;;;;8.88;69.65;99360.50;5065385;28;20517;-77
2020/12/12 06:42:40;;;;;;;61.42;39.72;;;;;;;8.83;69.73;99366.59;5042815;28;20044;-79
2020/12/12 06:45:14;;;;;;;59.58;38.13;;;;;;;8.77;70.03;99367.50;5043472;28;20028;-79
2020/12/12 06:47:41;;;;;;;59.83;39.88;;;;;;;8.96;69.51;99376.53;5063089;28;20131;-78
2020/12/12 06:50:11;;;;;;;61.17;41.10;;;;;;;8.98;69.48;99376.31;5064330;28;20487;-78
2020/12/12 06:52:36;;;;;;;56.65;35.58;;;;;;;9.05;69.47;99379.75;5062206;28;20072;-79
2020/12/12 06:55:05;;;;;;;59.28;37.78;;;;;;;9.20;68.97;99384.84;5047642;28;20137;-80
2020/12/12 06:57:41;;;;;;;51.47;35.35;;;;;;;9.39;68.44;99388.41;5059447;28;20017;-79
2020/12/12 07:00:17;;;;;;;58.28;40.55;;;;;;;9.34;68.32;99385.53;5064396;28;20491;-79
2020/12/12 07:03:00;;;;;;;57.97;37.17;;;;;;;9.25;68.70;99396.69;5061235;28;20024;-79
2020/12/12 07:05:29;;;;;;;61.13;38.55;;;;;;;9.26;68.62;99387.47;5044122;28;20044;-79
2020/12/12 07:08:00;;;;;;;57.45;34.83;;;;;;;9.37;68.21;99390.53;5061113;28;20043;-79
2020/12/12 07:10:26;;;;;;;;;;;;;;;9.40;68.44;99393.59;5061789;28;20103;-78
2020/12/12 07:12:51;;;;;;;59.13;34.85;;;;;;;9.21;69.03;99394.66;5046785;28;20382;-78
2020/12/12 07:15:16;;;;;;;61.67;34.78;;;;;;;9.22;68.92;99397.16;5060323;28;20531;-79
2020/12/12 07:17:42;;;;;;;56.55;37.15;;;;;;;9.14;69.21;99394.69;5064437;28;20039;-80
2020/12/12 07:20:08;;;;;;;55.75;34.22;;;;;;;9.34;68.68;99399.09;5063264;28;20584;-79
2020/12/12 07:22:34;;;;;;;65.18;36.08;;;;;;;9.24;68.69;99397.75;5044847;28;20063;-79
2020/12/12 07:25:00;;;;;;;52.22;34.17;;;;;;;9.39;68.56;99407.41;5059526;28;20423;-80
2020/12/12 07:27:26;;;;;;;65.07;35.33;;;;;;;9.36;68.48;99408.69;5065216;28;20032;-80
2020/12/12 07:29:51;;;;;;;62.40;36.15;;;;;;;9.34;68.71;99418.09;5060792;28;20417;-80
2020/12/12 07:32:17;;;;;;;58.25;35.80;;;;;;;9.46;68.37;99416.31;5057577;28;20475;-80
2020/12/12 07:34:43;;;;;;;60.50;33.35;;;;;;;9.53;68.16;99429.81;5061575;28;20051;-80
2020/12/12 07:37:10;;;;;;;62.13;37.83;;;;;;;9.42;68.38;99428.66;5042600;28;20087;-79
2020/12/12 07:39:41;;;;;;;58.70;35.25;;;;;;;9.48;68.38;99444.03;5059583;28;20517;-79
2020/12/12 07:42:09;;;;;;;62.80;33.95;;;;;;;9.54;68.29;99447.75;5041748;28;20522;-80
2020/12/12 07:44:36;;;;;;;59.95;32.97;;;;;;;9.48;68.21;99452.19;5045269;28;20052;-79
2020/12/12 07:47:02;;;;;;;63.92;35.88;;;;;;;9.55;68.12;99455.66;5063236;28;20151;-79
2020/12/12 07:49:29;;;;;;;60.08;35.42;;;;;;;9.58;68.09;99452.50;5064112;28;20067;-80
2020/12/12 07:52:13;;;;;;;60.90;40.55;;;;;;;9.47;68.28;99455.97;5043864;28;20025;-79
2020/12/12 07:54:46;;;;;;;56.60;32.90;;;;;;;9.55;68.27;99463.00;5060104;28;20090;-79
2020/12/12 07:57:14;;;;;;;55.85;33.78;;;;;;;9.60;68.27;99463.97;5045355;28;20387;-79
2020/12/12 07:59:40;;;;;;;57.45;37.03;;;;;;;9.65;67.95;99472.28;5061760;28;20066;-79
2020/12/12 08:02:07;;;;;;;73.88;42.17;;;;;;;9.55;68.21;99471.94;5062908;28;20119;-78
2020/12/12 08:04:33;;;;;;;72.80;36.53;;;;;;;9.46;68.42;99473.28;5046365;28;20036;-79
2020/12/12 08:07:11;;;;;;;69.53;37.53;;;;;;;9.44;68.50;99475.41;5059131;28;20029;-78
2020/12/12 08:09:37;;;;;;;62.90;36.83;;;;;;;9.37;68.66;99482.78;5063472;28;20143;-77
2020/12/12 08:12:03;;;;;;;60.10;35.80;;;;;;;9.38;68.68;99487.97;5059417;28;20052;-77
2020/12/12 08:14:31;;;;;;;66.88;35.53;;;;;;;9.40;68.57;99487.75;5052340;28;20089;-78
2020/12/12 08:16:58;;;;;;;76.10;39.78;;;;;;;9.53;68.54;99487.63;5061221;28;20051;-79
2020/12/12 08:19:24;;;;;;;82.15;41.55;;;;;;;9.53;68.32;99493.06;5061732;28;20609;-79
2020/12/12 08:22:06;;;;;;;79.70;39.83;;;;;;;9.58;68.22;99498.66;5063998;28;20036;-79
2020/12/12 08:24:31;;;;;;;70.85;42.55;;;;;;;9.62;68.25;99499.88;5062657;28;20371;-79
2020/12/12 08:26:57;;;;;;;65.38;39.65;;;;;;;9.72;68.09;99510.22;5061654;28;20036;-79
2020/12/12 08:29:22;;;;;;;67.78;42.10;;;;;;;9.76;68.12;99511.44;5043751;28;20037;-80
2020/12/12 08:31:47;;;;;;;82.40;38.47;;;;;;;9.72;68.13;99506.66;5045685;28;20058;-80
2020/12/12 08:34:19;;;;;;;81.82;37.72;;;;;;;9.66;68.13;99511.91;5039039;28;20032;-80
2020/12/12 08:36:44;;;;;;;75.93;35.97;;;;;;;9.67;67.96;99508.16;5053877;28;20080;-80
2020/12/12 08:39:10;;;;;;;71.75;37.03;;;;;;;9.54;68.42;99519.13;5034206;28;20044;-80
2020/12/12 08:41:38;;;;;;;81.10;36.83;;;;;;;9.74;68.05;99524.38;5006104;28;20033;-78
2020/12/12 08:44:05;;;;;;;95.50;41.53;;;;;;;9.61;68.62;99529.94;5041031;28;20025;-79
2020/12/12 08:46:31;;;;;;;84.45;43.45;;;;;;;9.65;68.48;99537.44;5035106;28;20029;-78
2020/12/12 08:48:57;;;;;;;94.38;44.25;;;;;;;9.55;68.53;99531.66;5040971;28;20033;-78
2020/12/12 08:51:30;;;;;;;104.82;43.03;;;;;;;9.67;68.63;99538.03;5043603;28;20506;-79
2020/12/12 08:53:56;;;;;;;114.10;44.10;;;;;;;9.49;68.96;99532.56;5040624;28;20033;-78
2020/12/12 08:56:21;;;;;;;75.80;39.67;;;;;;;9.71;68.68;99540.28;5044640;28;20025;-78
2020/12/12 08:58:48;;;;;;;83.85;39.65;;;;;;;9.60;69.09;99544.56;5037285;28;20392;-78
2020/12/12 09:01:35;;;;;;;81.07;40.40;;;;;;;9.62;68.87;99548.72;5023619;28;20036;-79
2020/12/12 09:04:03;;;;;;;100.50;44.33;;;;;;;9.53;69.10;99549.22;5037783;28;20036;-78
2020/12/12 09:06:33;;;;;;;73.68;39.00;;;;;;;9.60;69.04;99552.72;5042464;28;20032;-79
2020/12/12 09:09:14;;;;;;;82.57;39.42;;;;;;;9.67;68.80;99548.88;5038376;28;20044;-78
2020/12/12 09:11:41;;;;;;;;;;;;;;;9.60;68.92;99556.25;5025884;28;20040;-77
2020/12/12 09:14:07;;;;;;;91.88;39.53;;;;;;;9.61;69.18;99560.63;5043028;28;19963;-77
2020/12/12 09:16:33;;;;;;;101.38;42.78;;;;;;;9.74;68.90;99562.38;5025749;28;20029;-79
2020/12/12 09:18:58;;;;;;;86.85;38.25;;;;;;;9.66;69.02;99562.69;5041184;28;20037;-78
2020/12/12 09:21:24;;;;;;;78.05;36.25;;;;;;;9.64;69.22;99565.63;5047386;28;20516;-78
2020/12/12 09:23:50;;;;;;;76.45;38.10;;;;;;;9.78;68.80;99568.22;5045397;28;20028;-79
2020/12/12 09:26:15;;;;;;;83.35;38.55;;;;;;;9.88;68.48;99573.13;5028193;28;20037;-80
2020/12/12 09:28:40;;;;;;;79.18;36.15;;;;;;;9.89;68.51;99586.50;5046945;28;20040;-79
2020/12/12 09:31:06;;;;;;;96.95;39.28;;;;;;;9.91;68.39;99587.09;5043830;28;20036;-79
2020/12/12 09:33:32;;;;;;;91.95;42.33;;;;;;;9.95;68.39;99582.88;5041221;28;20484;-79
2020/12/12 09:35:57;;;;;;;85.00;42.45;;;;;;;10.01;68.44;99589.31;5044338;28;20118;-79
2020/12/12 09:38:23;;;;;;;113.65;61.83;;;;;;;10.00;68.21;99585.75;5046017;28;20048;-79
2020/12/12 09:40:50;;;;;;;101.03;52.40;;;;;;;10.02;68.29;99586.38;5064514;28;20482;-79
2020/12/12 09:43:17;;;;;;;93.88;45.88;;;;;;;10.04;68.30;99595.13;5067069;28;20537;-79
2020/12/12 09:45:44;;;;;;;109.18;45.33;;;;;;;10.00;68.34;99599.31;5061775;28;20432;-78
2020/12/12 09:48:09;;;;;;;102.03;44.13;;;;;;;9.94;68.70;99607.53;5050180;28;20032;-79
2020/12/12 09:50:36;;;;;;;93.30;40.65;;;;;;;9.95;68.62;99599.19;5066779;28;20036;-79
2020/12/12 09:53:05;;;;;;;85.82;39.92;;;;;;;10.02;68.40;99605.38;5061642;28;20098;-79
2020/12/12 09:55:32;;;;;;;99.07;44.67;;;;;;;10.03;68.49;99617.91;5061075;28;20485;-79
2020/12/12 09:57:59;;;;;;;100.20;42.40;;;;;;;10.06;68.29;99618.53;5065760;28;20029;-78
2020/12/12 10:00:25;;;;;;;95.57;40.78;;;;;;;10.10;68.20;99617.84;5068825;28;20037;-79
2020/12/12 10:02:50;;;;;;;103.05;43.00;;;;;;;10.12;68.29;99617.63;5066170;28;20509;-79
2020/12/12 10:05:16;;;;;;;91.85;44.13;;;;;;;10.22;68.13;99626.06;5032148;28;20037;-79
2020/12/12 10:07:41;;;;;;;88.60;41.08;;;;;;;10.17;68.24;99621.31;5062494;28;20029;-79
2020/12/12 10:10:07;;;;;;;83.13;41.20;;;;;;;10.30;68.13;99622.25;5065576;28;20044;-79
2020/12/12 10:12:32;;;;;;;104.53;43.22;;;;;;;10.23;68.16;99625.03;5062591;28;20024;-79
2020/12/12 10:14:58;;;;;;;80.80;39.03;;;;;;;10.31;68.08;99629.34;5031360;28;20043;-79
2020/12/12 10:17:23;;;;;;;83.93;39.80;;;;;;;10.31;68.07;99626.63;5064061;28;20494;-79
2020/12/12 10:19:49;;;;;;;90.95;43.78;;;;;;;10.27;68.05;99628.97;5061900;28;20025;-79
2020/12/12 10:22:14;;;;;;;80.07;40.65;;;;;;;10.28;68.16;99633.34;5046294;28;20033;-79
2020/12/12 10:24:39;;;;;;;83.05;36.78;;;;;;;10.39;67.95;99638.06;5067810;28;20032;-80
2020/12/12 10:27:05;;;;;;;102.65;37.05;;;;;;;10.36;68.13;99630.38;5046047;28;20067;-79
2020/12/12 10:29:30;;;;;;;120.75;41.15;;;;;;;10.36;68.23;99638.53;5065791;28;20146;-79
2020/12/12 10:31:55;;;;;;;92.75;41.33;;;;;;;10.43;68.13;99643.88;5066312;28;20047;-79
2020/12/12 10:34:21;;;;;;;81.97;40.33;;;;;;;10.41;68.12;99626.97;5062896;28;20143;-80
2020/12/12 10:36:46;;;;;;;66.95;40.45;;;;;;;10.44;68.00;99625.69;5046430;28;20596;-80
2020/12/12 10:39:12;;;;;;;88.35;41.25;;;;;;;10.56;68.05;99630.13;5043771;28;20404;-79
2020/12/12 10:41:37;;;;;;;79.18;38.35;;;;;;;10.55;68.04;99635.78;5061362;28;20039;-80
2020/12/12 10:44:03;;;;;;;77.82;39.63;;;;;;;10.63;67.96;99640.09;5063800;28;20028;-79
2020/12/12 10:46:28;;;;;;;76.53;38.67;;;;;;;10.59;67.93;99637.00;5061710;28;20035;-79
2020/12/12 10:48:54;;;;;;;81.70;36.97;;;;;;;10.57;68.20;99637.22;5046390;28;20040;-79
2020/12/12 10:51:19;;;;;;;78.15;36.25;;;;;;;10.55;67.96;99633.91;5042881;28;20045;-79
2020/12/12 10:53:45;;;;;;;72.05;39.15;;;;;;;10.43;68.30;99645.78;5060773;28;20036;-79
2020/12/12 10:56:10;;;;;;;72.57;38.60;;;;;;;10.59;68.08;99644.34;5063403;28;20037;-80
2020/12/12 10:58:36;;;;;;;70.50;38.60;;;;;;;10.57;68.11;99639.94;5059043;28;20032;-80
2020/12/12 11:01:02;;;;;;;67.93;35.67;;;;;;;10.62;67.98;99639.28;5044515;28;20099;-80
2020/12/12 11:03:27;;;;;;;65.70;33.05;;;;;;;10.61;67.99;99637.59;5052587;28;20171;-81
2020/12/12 11:05:53;;;;;;;65.78;34.92;;;;;;;10.49;68.07;99629.38;5027090;28;20287;-79
2020/12/12 11:08:18;;;;;;;52.83;30.30;;;;;;;10.64;68.14;99648.03;5063390;28;20514;-79
2020/12/12 11:10:44;;;;;;;56.40;32.10;;;;;;;10.69;68.12;99650.06;5063488;28;20033;-79
2020/12/12 11:13:09;;;;;;;48.28;28.23;;;;;;;10.72;67.93;99645.03;5046026;28;20040;-79
2020/12/12 11:15:38;;;;;;;47.17;29.38;;;;;;;10.73;68.17;99649.38;5064455;28;20102;-79
2020/12/12 11:18:03;;;;;;;51.33;28.08;;;;;;;10.82;67.98;99657.25;5058278;28;20033;-79
2020/12/12 11:20:29;;;;;;;46.60;30.73;;;;;;;10.84;67.80;99650.50;5065622;28;20032;-80
2020/12/12 11:22:55;;;;;;;61.80;33.00;;;;;;;10.92;68.02;99660.25;5062846;28;20490;-79